createdAt,value
2022-11-04T05:01:05.413Z,65.87
2022-11-04T05:03:51.622Z,66.18
2022-11-04T05:06:38.195Z,66.08
2022-11-04T05:09:24.676Z,66.10
2022-11-04T05:12:11.221Z,66.31
2022-11-04T05:14:57.657Z,66.16
2022-11-04T05:17:44.049Z,65.89
2022-11-04T05:20:33.400Z,65.98
2022-11-04T05:23:20.959Z,66.34
2022-11-04T05:26:07.729Z,65.94
2022-11-04T05:28:54.466Z,65.91
2022-11-04T05:31:41.045Z,65.83
2022-11-04T05:34:26.710Z,66.03
2022-11-04T05:37:12.580Z,66.03
2022-11-04T05:39:59.524Z,66.18
2022-11-04T05:42:46.471Z,66.05
2022-11-04T05:45:32.922Z,66.19
2022-11-04T05:48:19.636Z,66.02
2022-11-04T05:51:05.665Z,66.11
2022-11-04T05:53:52.460Z,66.16
2022-11-04T05:56:42.165Z,65.97
2022-11-04T05:59:28.125Z,66.02
2022-11-04T06:02:15.082Z,66.05
2022-11-04T06:05:02.009Z,66.04
2022-11-04T06:07:48.468Z,65.94
2022-11-04T06:10:35.043Z,65.88
2022-11-04T06:13:21.722Z,65.97
2022-11-04T06:16:08.386Z,66.08
2022-11-04T06:18:54.850Z,65.91
2022-11-04T06:21:41.466Z,65.86
2022-11-04T06:24:28.097Z,66.03
2022-11-04T06:27:14.727Z,65.96
2022-11-04T06:30:01.293Z,65.95
2022-11-04T06:32:47.833Z,65.69
2022-11-04T06:35:34.273Z,65.67
2022-11-04T06:38:20.738Z,65.88
2022-11-04T06:41:09.675Z,65.74
2022-11-04T06:43:55.650Z,65.82
2022-11-04T06:46:45.008Z,65.75
2022-11-04T06:49:31.190Z,65.60
2022-11-04T06:52:17.067Z,65.74
2022-11-04T06:55:02.844Z,65.69
2022-11-04T06:57:49.128Z,65.95
2022-11-04T07:00:35.500Z,65.93
2022-11-04T07:03:21.782Z,66.11
2022-11-04T07:06:09.767Z,65.96
2022-11-04T07:08:59.132Z,66.07
2022-11-04T07:11:46.005Z,65.90
2022-11-04T07:14:31.943Z,65.87
2022-11-04T07:17:22.315Z,65.85
2022-11-04T07:20:09.533Z,66.02
2022-11-04T07:22:56.184Z,65.99
2022-11-04T07:25:42.560Z,65.85
2022-11-04T07:28:29.193Z,66.00
2022-11-04T07:31:20.402Z,65.76
2022-11-04T07:34:06.266Z,65.84
2022-11-04T07:36:53.167Z,65.62
2022-11-04T07:39:38.977Z,65.59
2022-11-04T07:42:25.625Z,65.46
2022-11-04T07:45:13.817Z,65.77
2022-11-04T07:47:59.928Z,65.71
2022-11-04T07:50:45.970Z,65.65
2022-11-04T07:53:32.670Z,65.81
2022-11-04T07:56:21.974Z,65.78
2022-11-04T07:59:09.009Z,65.96
2022-11-04T08:01:55.841Z,65.59
2022-11-04T08:04:43.356Z,65.80
2022-11-04T08:07:30.300Z,65.34
2022-11-04T08:10:17.121Z,65.54
2022-11-04T08:13:04.145Z,65.66
2022-11-04T08:15:51.204Z,65.63
2022-11-04T08:18:37.966Z,65.64
2022-11-04T08:21:24.667Z,65.53
2022-11-04T08:24:11.461Z,65.57
2022-11-04T08:26:57.866Z,65.48
2022-11-04T08:29:44.912Z,65.41
2022-11-04T08:32:31.912Z,65.42
2022-11-04T08:35:19.017Z,65.56
2022-11-04T08:38:05.542Z,65.58
2022-11-04T08:40:57.080Z,65.46
2022-11-04T08:43:47.255Z,65.48
2022-11-04T08:46:40.072Z,65.37
2022-11-04T08:49:27.523Z,65.40
2022-11-04T08:52:14.204Z,65.50
2022-11-04T08:55:01.280Z,65.55
2022-11-04T08:57:48.075Z,65.50
2022-11-04T09:00:34.507Z,65.48
2022-11-04T09:03:21.123Z,65.40
2022-11-04T09:06:12.796Z,65.47
2022-11-04T09:09:05.371Z,65.46
2022-11-04T09:11:52.453Z,65.64
2022-11-04T09:14:39.402Z,65.51
2022-11-04T09:17:26.216Z,65.50
2022-11-04T09:20:12.684Z,65.55
2022-11-04T09:22:59.491Z,65.61
2022-11-04T09:25:46.131Z,65.49
2022-11-04T09:28:32.790Z,65.62
2022-11-04T09:31:20.567Z,65.55
2022-11-04T09:34:07.257Z,65.46
2022-11-04T09:36:56.886Z,65.53
2022-11-04T09:39:43.419Z,65.53
2022-11-04T09:42:46.600Z,65.83
2022-11-04T09:45:34.297Z,65.78
2022-11-04T09:48:41.834Z,65.70
2022-11-04T09:51:52.680Z,65.75
2022-11-04T09:54:47.400Z,65.53
2022-11-04T09:57:34.334Z,65.78
2022-11-04T10:00:20.971Z,65.75
2022-11-04T10:03:16.730Z,65.80
2022-11-04T10:06:19.326Z,65.63
2022-11-04T10:09:11.825Z,65.88
2022-11-04T10:12:07.244Z,65.84
2022-11-04T10:15:14.189Z,66.04
2022-11-04T10:18:26.015Z,66.03
2022-11-04T10:21:11.851Z,66.04
2022-11-04T10:24:24.799Z,65.77
2022-11-04T10:27:31.711Z,65.97
2022-11-04T10:30:26.479Z,65.82
2022-11-04T10:33:32.145Z,65.95
2022-11-04T10:36:19.547Z,65.92
2022-11-04T10:39:18.388Z,65.89
2022-11-04T10:42:06.727Z,65.95
2022-11-04T10:44:53.827Z,65.92
2022-11-04T10:48:07.835Z,65.69
2022-11-04T10:50:58.794Z,65.60
2022-11-04T10:53:45.928Z,65.58
2022-11-04T10:56:32.820Z,65.67
2022-11-04T10:59:51.003Z,65.68
2022-11-04T11:02:37.847Z,65.79
2022-11-04T11:05:25.792Z,65.66
2022-11-04T11:08:32.021Z,65.63
2022-11-04T11:11:39.957Z,65.49
2022-11-04T11:14:29.739Z,65.33
2022-11-04T11:17:16.618Z,65.62
2022-11-04T11:20:33.369Z,65.51
2022-11-04T11:23:39.868Z,65.48
2022-11-04T11:26:31.697Z,65.64
2022-11-04T11:29:41.475Z,65.48
2022-11-04T11:32:37.556Z,65.37
2022-11-04T11:35:30.153Z,65.31
2022-11-04T11:38:23.025Z,65.24
2022-11-04T11:41:28.465Z,65.37
2022-11-04T11:44:32.137Z,65.20
2022-11-04T11:47:27.571Z,65.08
2022-11-04T11:50:13.652Z,65.18
2022-11-04T11:53:24.288Z,65.24
2022-11-04T11:56:36.217Z,65.07
2022-11-04T12:10:49.180Z,65.29
2022-11-04T12:13:38.912Z,65.16
2022-11-04T12:16:44.281Z,65.12
2022-11-04T12:20:04.124Z,65.05
2022-11-04T12:23:23.505Z,64.98
2022-11-04T12:26:30.251Z,65.00
2022-11-04T12:29:36.334Z,64.99
2022-11-04T12:32:48.003Z,65.03
2022-11-04T12:36:11.172Z,65.07
2022-11-04T12:39:09.665Z,65.22
2022-11-04T12:42:31.412Z,65.22
2022-11-04T12:45:37.446Z,65.14
2022-11-04T12:49:08.723Z,65.22
2022-11-04T12:52:19.788Z,64.93
2022-11-04T12:55:23.351Z,64.98
2022-11-04T12:58:33.554Z,65.07
2022-11-04T13:01:25.844Z,65.04
2022-11-04T13:04:29.007Z,65.05
2022-11-04T13:07:29.722Z,65.04
2022-11-04T13:10:26.445Z,64.97
2022-11-04T13:13:18.559Z,64.89
2022-11-04T13:16:10.921Z,65.10
2022-11-04T13:18:59.098Z,65.04
2022-11-04T13:21:44.989Z,64.96
2022-11-04T13:24:36.756Z,64.93
2022-11-04T13:27:27.745Z,65.00
2022-11-04T13:30:52.321Z,65.02
2022-11-04T13:33:47.692Z,64.99
2022-11-04T13:36:51.588Z,64.99
2022-11-04T13:39:58.343Z,65.00
2022-11-04T13:43:24.578Z,65.12
2022-11-04T13:46:11.576Z,65.18
2022-11-04T13:49:16.870Z,65.07
2022-11-04T13:52:13.886Z,65.14
2022-11-04T13:55:04.989Z,65.08
2022-11-04T13:58:07.814Z,65.26
2022-11-04T14:01:12.780Z,65.19
2022-11-04T14:04:15.990Z,65.21
2022-11-04T14:07:09.001Z,65.21
2022-11-04T14:09:55.993Z,65.18
2022-11-04T14:12:42.686Z,65.25
2022-11-04T14:16:00.738Z,65.21
2022-11-04T14:18:49.573Z,65.16
2022-11-04T14:22:08.314Z,65.03
2022-11-04T14:24:56.483Z,65.06
2022-11-04T14:27:44.175Z,65.19
2022-11-04T14:30:31.277Z,64.94
2022-11-04T14:33:30.351Z,65.07
2022-11-04T14:36:26.812Z,64.96
2022-11-04T14:39:14.496Z,64.96
2022-11-04T14:42:03.184Z,64.93
2022-11-04T14:44:51.515Z,64.92
2022-11-04T14:47:38.999Z,64.82
2022-11-04T14:50:28.848Z,64.91
2022-11-04T14:53:26.258Z,64.91
2022-11-04T14:56:27.258Z,65.08
2022-11-04T14:59:25.701Z,64.97
2022-11-04T15:02:22.314Z,65.04
2022-11-04T15:05:27.480Z,65.03
2022-11-04T15:08:33.334Z,64.98
2022-11-04T15:11:48.775Z,65.02
2022-11-04T15:14:37.857Z,65.13
2022-11-04T15:17:29.249Z,65.11
2022-11-04T15:20:24.439Z,65.09
2022-11-04T15:23:15.825Z,65.01
2022-11-04T15:26:04.120Z,64.98
2022-11-04T15:28:52.624Z,65.06
2022-11-04T15:31:52.243Z,65.15
2022-11-04T15:34:41.674Z,65.13
2022-11-04T15:37:30.052Z,65.18
2022-11-04T15:40:18.152Z,65.04
2022-11-04T15:43:06.962Z,65.10
2022-11-04T15:45:53.952Z,65.12
2022-11-04T15:48:40.806Z,65.17
2022-11-04T15:51:28.208Z,65.19
2022-11-04T15:54:27.499Z,65.17
2022-11-04T15:57:15.581Z,65.27
2022-11-04T16:00:08.643Z,65.19
2022-11-04T16:03:01.258Z,65.23
2022-11-04T16:06:08.846Z,65.28
2022-11-04T16:09:05.680Z,65.30
2022-11-04T16:12:36.131Z,65.35
2022-11-04T16:15:41.466Z,65.14
2022-11-04T16:18:44.479Z,65.27
2022-11-04T16:21:34.531Z,65.27
2022-11-04T16:24:31.442Z,65.23
2022-11-04T16:27:20.511Z,65.38
2022-11-04T16:30:21.215Z,65.35
2022-11-04T16:33:10.858Z,65.31
2022-11-04T16:35:57.170Z,65.18
2022-11-04T16:38:43.162Z,65.14
2022-11-04T16:41:32.088Z,65.21
2022-11-04T16:44:23.495Z,65.20
2022-11-04T16:47:10.960Z,65.22
2022-11-04T16:50:02.096Z,65.13
2022-11-04T16:52:48.981Z,65.00
2022-11-04T16:55:35.579Z,64.99
2022-11-04T16:58:23.110Z,65.00
2022-11-04T17:01:16.040Z,64.88
2022-11-04T17:04:04.552Z,64.88
2022-11-04T17:06:50.763Z,64.99
2022-11-04T17:09:37.225Z,65.05
2022-11-04T17:12:23.505Z,64.98
2022-11-04T17:15:10.597Z,64.99
2022-11-04T17:17:57.156Z,64.91
2022-11-04T17:20:46.038Z,64.93
2022-11-04T17:23:31.888Z,64.93
2022-11-04T17:26:18.424Z,64.93
2022-11-04T17:29:05.672Z,64.94
2022-11-04T17:31:56.048Z,64.86
2022-11-04T17:34:43.653Z,64.89
2022-11-04T17:37:29.640Z,64.87
2022-11-04T17:40:18.366Z,64.96
2022-11-04T17:43:23.121Z,64.94
2022-11-04T17:46:29.683Z,64.85
2022-11-04T17:49:18.699Z,64.85
2022-11-04T17:52:05.901Z,65.03
2022-11-04T17:54:52.775Z,65.05
2022-11-04T17:57:39.001Z,65.00
2022-11-04T18:00:29.905Z,64.88
2022-11-04T18:03:17.159Z,64.88
2022-11-04T18:06:04.925Z,64.79
2022-11-04T18:08:55.277Z,64.77
2022-11-04T18:11:59.521Z,64.89
2022-11-04T18:14:46.041Z,64.90
2022-11-04T18:17:32.404Z,64.89
2022-11-04T18:20:18.511Z,64.87
2022-11-04T18:23:04.876Z,64.97
2022-11-04T18:25:51.093Z,64.92
2022-11-04T18:28:38.799Z,64.78
2022-11-04T18:31:29.191Z,64.76
2022-11-04T18:34:18.007Z,64.79
2022-11-04T18:37:04.344Z,64.91
2022-11-04T18:39:51.407Z,64.89
2022-11-04T18:42:38.007Z,64.91
2022-11-04T18:45:24.601Z,64.95
2022-11-04T18:48:10.715Z,64.86
2022-11-04T18:51:00.745Z,64.82
2022-11-04T18:53:47.092Z,64.92
2022-11-04T18:56:33.920Z,64.89
2022-11-04T18:59:20.044Z,64.91
2022-11-04T19:02:08.570Z,64.93
2022-11-04T19:04:55.344Z,64.79
2022-11-04T19:07:42.227Z,64.77
2022-11-04T19:10:28.442Z,64.82
2022-11-04T19:13:20.851Z,64.71
2022-11-04T19:16:12.796Z,64.68
2022-11-04T19:19:00.846Z,64.69
2022-11-04T19:21:49.797Z,64.73
2022-11-04T19:24:36.155Z,64.77
2022-11-04T19:27:25.176Z,64.84
2022-11-04T19:30:13.059Z,64.81
2022-11-04T19:32:40.986Z,64.84
2022-11-04T19:35:08.795Z,65.01
2022-11-04T19:37:37.588Z,64.91
2022-11-04T19:40:06.514Z,64.88
2022-11-04T19:42:53.081Z,65.01
2022-11-04T19:45:20.169Z,64.82
2022-11-04T19:47:47.419Z,64.80
2022-11-04T19:50:14.574Z,64.88
2022-11-04T19:52:42.955Z,64.88
2022-11-04T19:55:11.676Z,64.74
2022-11-04T19:57:39.732Z,64.90
2022-11-04T20:00:08.096Z,64.85
2022-11-04T20:02:41.922Z,64.72
2022-11-04T20:05:10.015Z,64.69
2022-11-04T20:07:39.996Z,64.72
2022-11-04T20:10:08.184Z,64.76
2022-11-04T20:12:55.524Z,64.78
2022-11-04T20:15:23.551Z,64.76
2022-11-04T20:17:51.302Z,64.78
2022-11-04T20:20:19.144Z,64.97
2022-11-04T20:22:47.169Z,64.98
2022-11-04T20:25:14.620Z,64.97
2022-11-04T20:27:41.929Z,64.97
2022-11-04T20:30:10.211Z,64.91
2022-11-04T20:33:02.854Z,64.79
2022-11-04T20:35:30.202Z,64.79
2022-11-04T20:37:57.539Z,65.05
2022-11-04T20:40:24.967Z,65.05
2022-11-04T20:42:52.222Z,64.98
2022-11-04T20:45:19.762Z,64.97
2022-11-04T20:47:48.298Z,64.89
2022-11-04T20:50:15.933Z,64.93
2022-11-04T20:53:01.967Z,65.15
2022-11-04T20:55:51.230Z,65.15
2022-11-04T20:58:39.590Z,65.18
2022-11-04T21:01:31.206Z,65.54
2022-11-04T21:04:20.421Z,65.40
2022-11-04T21:07:07.159Z,65.42
2022-11-04T21:09:53.294Z,65.41
2022-11-04T21:12:39.599Z,65.54
2022-11-04T21:15:40.961Z,65.55
2022-11-04T21:18:28.131Z,65.71
2022-11-04T21:20:57.023Z,65.57
2022-11-04T21:23:25.434Z,65.67
2022-11-04T21:25:56.614Z,65.61
2022-11-04T21:28:42.624Z,65.72
2022-11-04T21:31:30.830Z,65.85
2022-11-04T21:34:17.457Z,65.88
2022-11-04T21:36:45.898Z,66.03
2022-11-04T21:39:13.386Z,65.97
2022-11-04T21:41:41.332Z,66.00
2022-11-04T21:44:12.925Z,66.05
2022-11-04T21:46:40.678Z,65.97
2022-11-04T21:49:09.268Z,66.10
2022-11-04T21:51:36.884Z,66.18
2022-11-04T21:54:07.464Z,66.10
2022-11-04T21:56:35.925Z,66.26
2022-11-04T21:59:04.394Z,66.32
2022-11-04T22:01:33.039Z,66.22
2022-11-04T22:04:02.131Z,66.30
2022-11-04T22:06:34.680Z,66.58
2022-11-04T22:09:05.632Z,66.36
2022-11-04T22:11:36.787Z,66.42
2022-11-04T22:14:08.611Z,66.18
2022-11-04T22:16:39.082Z,66.47
2022-11-04T22:19:10.559Z,66.53
2022-11-04T22:21:43.939Z,66.66
2022-11-04T22:24:17.308Z,66.50
2022-11-04T22:26:44.724Z,66.60
2022-11-04T22:29:12.313Z,66.63
2022-11-04T22:31:43.444Z,66.60
2022-11-04T22:34:11.089Z,66.70
2022-11-04T22:36:38.727Z,66.71
2022-11-04T22:39:07.548Z,66.83
2022-11-04T22:41:37.847Z,66.72
2022-11-04T22:44:05.069Z,66.79
2022-11-04T22:46:35.602Z,66.95
2022-11-04T22:49:02.928Z,66.93
2022-11-04T22:51:31.817Z,66.89
2022-11-04T22:54:04.573Z,66.81
2022-11-04T22:56:35.460Z,66.92
2022-11-04T22:59:02.942Z,67.01
2022-11-04T23:01:31.964Z,67.12
2022-11-04T23:03:59.813Z,67.04
2022-11-04T23:06:27.199Z,67.26
2022-11-04T23:08:59.753Z,67.11
2022-11-04T23:11:48.159Z,67.04
2022-11-04T23:14:48.018Z,67.30
2022-11-04T23:17:40.656Z,67.28
2022-11-04T23:20:13.099Z,67.33
2022-11-04T23:22:59.714Z,67.44
2022-11-04T23:25:28.911Z,67.56
2022-11-04T23:28:15.125Z,67.34
2022-11-04T23:30:46.478Z,67.53
2022-11-04T23:33:15.725Z,67.30
2022-11-04T23:36:05.161Z,67.65
2022-11-04T23:38:35.774Z,67.48
2022-11-04T23:41:25.554Z,67.42
2022-11-04T23:43:54.014Z,67.54
2022-11-04T23:46:43.283Z,67.44
2022-11-04T23:49:31.844Z,67.67
2022-11-04T23:52:32.535Z,67.82
2022-11-04T23:55:19.789Z,67.69
2022-11-04T23:58:06.723Z,67.77
